sensor_id;sensor_type;location;lat;lon;timestamp;temperature;humidity
23063;DHT22;11699;43.704;10.430;2023-04-05T00:02:12;8.20;58.20
23063;DHT22;11699;43.704;10.430;2023-04-05T00:04:44;8.10;58.50
23063;DHT22;11699;43.704;10.430;2023-04-05T00:07:17;7.90;58.40
23063;DHT22;11699;43.704;10.430;2023-04-05T00:09:48;8.00;58.00
23063;DHT22;11699;43.704;10.430;2023-04-05T00:12:15;8.00;58.50
23063;DHT22;11699;43.704;10.430;2023-04-05T00:14:42;8.00;58.70
23063;DHT22;11699;43.704;10.430;2023-04-05T00:17:10;8.10;58.30
23063;DHT22;11699;43.704;10.430;2023-04-05T00:19:38;8.10;58.70
23063;DHT22;11699;43.704;10.430;2023-04-05T00:22:05;8.10;59.00
23063;DHT22;11699;43.704;10.430;2023-04-05T00:24:36;8.00;59.70
23063;DHT22;11699;43.704;10.430;2023-04-05T00:27:08;7.90;59.20
23063;DHT22;11699;43.704;10.430;2023-04-05T00:29:35;8.10;58.70
23063;DHT22;11699;43.704;10.430;2023-04-05T00:32:03;8.20;59.20
23063;DHT22;11699;43.704;10.430;2023-04-05T00:34:30;8.20;58.90
23063;DHT22;11699;43.704;10.430;2023-04-05T00:36:58;8.30;58.90
23063;DHT22;11699;43.704;10.430;2023-04-05T00:39:26;8.30;59.00
23063;DHT22;11699;43.704;10.430;2023-04-05T00:41:53;8.30;58.50
23063;DHT22;11699;43.704;10.430;2023-04-05T00:44:22;8.30;59.10
23063;DHT22;11699;43.704;10.430;2023-04-05T00:46:49;8.20;59.90
23063;DHT22;11699;43.704;10.430;2023-04-05T00:49:17;8.10;59.50
23063;DHT22;11699;43.704;10.430;2023-04-05T00:51:44;8.10;60.20
23063;DHT22;11699;43.704;10.430;2023-04-05T00:54:12;8.10;59.30
23063;DHT22;11699;43.704;10.430;2023-04-05T00:56:40;8.10;59.40
23063;DHT22;11699;43.704;10.430;2023-04-05T00:59:08;8.20;59.00
23063;DHT22;11699;43.704;10.430;2023-04-05T01:01:39;8.20;58.60
23063;DHT22;11699;43.704;10.430;2023-04-05T01:04:08;8.30;59.20
23063;DHT22;11699;43.704;10.430;2023-04-05T01:06:51;8.30;59.30
23063;DHT22;11699;43.704;10.430;2023-04-05T01:09:34;8.20;59.40
23063;DHT22;11699;43.704;10.430;2023-04-05T01:12:06;8.20;59.60
23063;DHT22;11699;43.704;10.430;2023-04-05T01:14:46;8.10;59.60
23063;DHT22;11699;43.704;10.430;2023-04-05T01:17:17;8.10;60.00
23063;DHT22;11699;43.704;10.430;2023-04-05T01:19:47;8.20;60.10
23063;DHT22;11699;43.704;10.430;2023-04-05T01:22:48;8.30;58.90
23063;DHT22;11699;43.704;10.430;2023-04-05T01:25:44;8.30;58.70
23063;DHT22;11699;43.704;10.430;2023-04-05T01:28:32;8.30;59.60
23063;DHT22;11699;43.704;10.430;2023-04-05T01:31:06;8.30;59.80
23063;DHT22;11699;43.704;10.430;2023-04-05T01:33:39;8.20;60.00
23063;DHT22;11699;43.704;10.430;2023-04-05T01:36:15;8.20;59.30
23063;DHT22;11699;43.704;10.430;2023-04-05T01:38:45;8.30;59.70
23063;DHT22;11699;43.704;10.430;2023-04-05T01:41:14;8.40;58.60
23063;DHT22;11699;43.704;10.430;2023-04-05T01:43:42;8.30;58.90
23063;DHT22;11699;43.704;10.430;2023-04-05T01:46:10;8.30;59.20
23063;DHT22;11699;43.704;10.430;2023-04-05T01:48:38;8.20;58.40
23063;DHT22;11699;43.704;10.430;2023-04-05T01:51:05;8.30;58.80
23063;DHT22;11699;43.704;10.430;2023-04-05T01:53:33;8.20;59.30
23063;DHT22;11699;43.704;10.430;2023-04-05T01:56:00;8.10;60.00
23063;DHT22;11699;43.704;10.430;2023-04-05T01:58:28;8.10;59.90
23063;DHT22;11699;43.704;10.430;2023-04-05T02:00:55;8.00;60.30
23063;DHT22;11699;43.704;10.430;2023-04-05T02:03:24;7.90;59.90
23063;DHT22;11699;43.704;10.430;2023-04-05T02:05:52;7.90;60.10
23063;DHT22;11699;43.704;10.430;2023-04-05T02:08:19;7.80;60.30
23063;DHT22;11699;43.704;10.430;2023-04-05T02:10:46;7.70;60.50
23063;DHT22;11699;43.704;10.430;2023-04-05T02:13:14;7.70;61.20
23063;DHT22;11699;43.704;10.430;2023-04-05T02:15:47;7.60;60.90
23063;DHT22;11699;43.704;10.430;2023-04-05T02:18:15;7.60;61.00
23063;DHT22;11699;43.704;10.430;2023-04-05T02:20:48;7.70;60.80
23063;DHT22;11699;43.704;10.430;2023-04-05T02:23:17;7.60;61.20
23063;DHT22;11699;43.704;10.430;2023-04-05T02:25:45;7.60;61.30
23063;DHT22;11699;43.704;10.430;2023-04-05T02:28:13;7.60;61.20
23063;DHT22;11699;43.704;10.430;2023-04-05T02:30:40;7.60;61.20
23063;DHT22;11699;43.704;10.430;2023-04-05T02:33:07;7.50;61.60
23063;DHT22;11699;43.704;10.430;2023-04-05T02:35:35;7.40;61.70
23063;DHT22;11699;43.704;10.430;2023-04-05T02:38:04;7.40;62.10
23063;DHT22;11699;43.704;10.430;2023-04-05T02:40:32;7.40;61.40
23063;DHT22;11699;43.704;10.430;2023-04-05T02:42:59;7.40;62.00
23063;DHT22;11699;43.704;10.430;2023-04-05T02:45:27;7.30;61.60
23063;DHT22;11699;43.704;10.430;2023-04-05T02:47:54;7.20;61.40
23063;DHT22;11699;43.704;10.430;2023-04-05T02:50:21;7.10;61.40
23063;DHT22;11699;43.704;10.430;2023-04-05T02:52:49;7.10;61.90
23063;DHT22;11699;43.704;10.430;2023-04-05T02:55:17;7.10;61.90
23063;DHT22;11699;43.704;10.430;2023-04-05T02:57:45;7.10;61.30
23063;DHT22;11699;43.704;10.430;2023-04-05T03:00:13;7.10;61.10
23063;DHT22;11699;43.704;10.430;2023-04-05T03:02:40;7.10;61.40
23063;DHT22;11699;43.704;10.430;2023-04-05T03:05:08;7.10;61.50
23063;DHT22;11699;43.704;10.430;2023-04-05T03:07:35;7.10;62.00
23063;DHT22;11699;43.704;10.430;2023-04-05T03:10:03;7.10;62.10
23063;DHT22;11699;43.704;10.430;2023-04-05T03:12:33;7.20;62.00
23063;DHT22;11699;43.704;10.430;2023-04-05T03:15:00;7.10;62.00
23063;DHT22;11699;43.704;10.430;2023-04-05T03:17:27;7.20;62.00
23063;DHT22;11699;43.704;10.430;2023-04-05T03:19:55;7.20;61.70
23063;DHT22;11699;43.704;10.430;2023-04-05T03:22:22;7.10;62.30
23063;DHT22;11699;43.704;10.430;2023-04-05T03:24:49;7.10;62.80
23063;DHT22;11699;43.704;10.430;2023-04-05T03:27:17;6.90;64.60
23063;DHT22;11699;43.704;10.430;2023-04-05T03:29:46;6.90;65.00
23063;DHT22;11699;43.704;10.430;2023-04-05T03:32:13;6.60;65.80
23063;DHT22;11699;43.704;10.430;2023-04-05T03:34:42;6.40;66.70
23063;DHT22;11699;43.704;10.430;2023-04-05T03:37:09;6.40;66.80
23063;DHT22;11699;43.704;10.430;2023-04-05T03:39:36;6.30;66.40
23063;DHT22;11699;43.704;10.430;2023-04-05T03:42:04;6.10;66.80
23063;DHT22;11699;43.704;10.430;2023-04-05T03:44:31;6.00;67.80
23063;DHT22;11699;43.704;10.430;2023-04-05T03:47:00;6.10;67.50
23063;DHT22;11699;43.704;10.430;2023-04-05T03:49:27;6.20;68.50
23063;DHT22;11699;43.704;10.430;2023-04-05T03:51:54;6.20;67.60
23063;DHT22;11699;43.704;10.430;2023-04-05T03:54:22;6.20;69.00
23063;DHT22;11699;43.704;10.430;2023-04-05T03:56:49;6.10;68.20
23063;DHT22;11699;43.704;10.430;2023-04-05T03:59:17;6.10;68.80
23063;DHT22;11699;43.704;10.430;2023-04-05T04:01:44;6.10;68.60
23063;DHT22;11699;43.704;10.430;2023-04-05T04:04:12;6.20;68.30
23063;DHT22;11699;43.704;10.430;2023-04-05T04:06:40;6.20;69.50
23063;DHT22;11699;43.704;10.430;2023-04-05T04:09:07;6.30;69.00
23063;DHT22;11699;43.704;10.430;2023-04-05T04:11:36;6.30;68.40
23063;DHT22;11699;43.704;10.430;2023-04-05T04:14:03;6.30;67.90
23063;DHT22;11699;43.704;10.430;2023-04-05T04:16:30;6.50;67.50
23063;DHT22;11699;43.704;10.430;2023-04-05T04:18:57;6.40;69.00
23063;DHT22;11699;43.704;10.430;2023-04-05T04:21:26;6.30;69.40
23063;DHT22;11699;43.704;10.430;2023-04-05T04:23:53;6.40;68.50
23063;DHT22;11699;43.704;10.430;2023-04-05T04:26:20;6.50;68.70
23063;DHT22;11699;43.704;10.430;2023-04-05T04:28:51;6.70;68.10
23063;DHT22;11699;43.704;10.430;2023-04-05T04:31:19;6.70;68.70
23063;DHT22;11699;43.704;10.430;2023-04-05T04:33:48;6.80;67.90
23063;DHT22;11699;43.704;10.430;2023-04-05T04:36:16;6.80;67.20
23063;DHT22;11699;43.704;10.430;2023-04-05T04:38:53;6.80;67.10
23063;DHT22;11699;43.704;10.430;2023-04-05T04:41:21;6.70;67.60
23063;DHT22;11699;43.704;10.430;2023-04-05T04:43:51;6.60;68.10
23063;DHT22;11699;43.704;10.430;2023-04-05T04:46:19;6.50;69.40
23063;DHT22;11699;43.704;10.430;2023-04-05T04:48:51;6.50;70.40
23063;DHT22;11699;43.704;10.430;2023-04-05T04:51:19;6.60;69.30
23063;DHT22;11699;43.704;10.430;2023-04-05T04:53:46;6.90;67.20
23063;DHT22;11699;43.704;10.430;2023-04-05T04:56:14;6.90;69.00
23063;DHT22;11699;43.704;10.430;2023-04-05T04:58:41;6.70;69.80
23063;DHT22;11699;43.704;10.430;2023-04-05T05:01:09;6.60;70.40
23063;DHT22;11699;43.704;10.430;2023-04-05T05:03:36;6.50;70.20
23063;DHT22;11699;43.704;10.430;2023-04-05T05:06:05;6.90;67.80
23063;DHT22;11699;43.704;10.430;2023-04-05T05:08:32;6.90;70.30
23063;DHT22;11699;43.704;10.430;2023-04-05T05:11:00;6.80;69.50
23063;DHT22;11699;43.704;10.430;2023-04-05T05:13:28;6.70;71.00
23063;DHT22;11699;43.704;10.430;2023-04-05T05:15:57;6.70;71.00
23063;DHT22;11699;43.704;10.430;2023-04-05T05:18:25;6.60;71.90
23063;DHT22;11699;43.704;10.430;2023-04-05T05:20:52;6.60;71.80
23063;DHT22;11699;43.704;10.430;2023-04-05T05:23:19;6.70;74.00
23063;DHT22;11699;43.704;10.430;2023-04-05T05:25:47;6.90;72.00
23063;DHT22;11699;43.704;10.430;2023-04-05T05:28:14;7.00;72.20
23063;DHT22;11699;43.704;10.430;2023-04-05T05:30:43;7.00;72.20
23063;DHT22;11699;43.704;10.430;2023-04-05T05:33:10;7.00;72.20
23063;DHT22;11699;43.704;10.430;2023-04-05T05:35:37;7.10;72.90
23063;DHT22;11699;43.704;10.430;2023-04-05T05:38:04;7.10;72.40
23063;DHT22;11699;43.704;10.430;2023-04-05T05:40:32;7.00;73.60
23063;DHT22;11699;43.704;10.430;2023-04-05T05:42:59;7.10;74.80
23063;DHT22;11699;43.704;10.430;2023-04-05T05:45:26;7.20;74.60
23063;DHT22;11699;43.704;10.430;2023-04-05T05:47:55;7.10;75.40
23063;DHT22;11699;43.704;10.430;2023-04-05T05:50:22;7.20;76.00
23063;DHT22;11699;43.704;10.430;2023-04-05T05:52:49;7.10;75.80
23063;DHT22;11699;43.704;10.430;2023-04-05T05:55:17;7.30;76.90
23063;DHT22;11699;43.704;10.430;2023-04-05T05:57:44;7.40;73.60
23063;DHT22;11699;43.704;10.430;2023-04-05T06:00:12;7.60;71.50
23063;DHT22;11699;43.704;10.430;2023-04-05T06:02:40;7.50;73.40
23063;DHT22;11699;43.704;10.430;2023-04-05T06:05:09;7.60;73.90
23063;DHT22;11699;43.704;10.430;2023-04-05T06:07:36;7.60;72.30
23063;DHT22;11699;43.704;10.430;2023-04-05T06:10:04;7.70;70.00
23063;DHT22;11699;43.704;10.430;2023-04-05T06:12:32;8.00;70.00
23063;DHT22;11699;43.704;10.430;2023-04-05T06:15:00;8.20;69.00
23063;DHT22;11699;43.704;10.430;2023-04-05T06:17:27;8.40;66.10
23063;DHT22;11699;43.704;10.430;2023-04-05T06:19:55;8.60;66.40
23063;DHT22;11699;43.704;10.430;2023-04-05T06:22:23;8.80;64.60
23063;DHT22;11699;43.704;10.430;2023-04-05T06:24:52;8.80;63.40
23063;DHT22;11699;43.704;10.430;2023-04-05T06:27:19;8.90;63.10
23063;DHT22;11699;43.704;10.430;2023-04-05T06:29:46;9.00;61.50
23063;DHT22;11699;43.704;10.430;2023-04-05T06:32:14;8.80;62.30
23063;DHT22;11699;43.704;10.430;2023-04-05T06:34:41;8.80;60.90
23063;DHT22;11699;43.704;10.430;2023-04-05T06:37:11;8.90;62.40
23063;DHT22;11699;43.704;10.430;2023-04-05T06:39:40;8.80;60.00
23063;DHT22;11699;43.704;10.430;2023-04-05T06:42:07;9.10;60.10
23063;DHT22;11699;43.704;10.430;2023-04-05T06:44:34;9.20;60.10
23063;DHT22;11699;43.704;10.430;2023-04-05T06:47:01;9.60;58.60
23063;DHT22;11699;43.704;10.430;2023-04-05T06:49:29;10.60;57.50
23063;DHT22;11699;43.704;10.430;2023-04-05T06:51:56;11.90;55.80
23063;DHT22;11699;43.704;10.430;2023-04-05T06:54:24;13.30;57.10
23063;DHT22;11699;43.704;10.430;2023-04-05T06:56:52;14.60;53.30
23063;DHT22;11699;43.704;10.430;2023-04-05T06:59:21;14.30;52.50
23063;DHT22;11699;43.704;10.430;2023-04-05T07:01:48;14.80;50.60
23063;DHT22;11699;43.704;10.430;2023-04-05T07:04:15;15.50;51.10
23063;DHT22;11699;43.704;10.430;2023-04-05T07:06:42;16.00;48.50
23063;DHT22;11699;43.704;10.430;2023-04-05T07:09:09;16.70;48.90
23063;DHT22;11699;43.704;10.430;2023-04-05T07:11:37;17.40;48.50
23063;DHT22;11699;43.704;10.430;2023-04-05T07:14:06;16.70;49.30
23063;DHT22;11699;43.704;10.430;2023-04-05T07:16:33;16.20;49.20
23063;DHT22;11699;43.704;10.430;2023-04-05T07:19:00;16.50;49.40
23063;DHT22;11699;43.704;10.430;2023-04-05T07:21:27;16.10;47.90
23063;DHT22;11699;43.704;10.430;2023-04-05T07:23:55;16.80;48.90
23063;DHT22;11699;43.704;10.430;2023-04-05T07:26:25;16.90;46.60
23063;DHT22;11699;43.704;10.430;2023-04-05T07:28:53;16.50;46.70
23063;DHT22;11699;43.704;10.430;2023-04-05T07:31:22;16.00;47.70
23063;DHT22;11699;43.704;10.430;2023-04-05T07:33:49;17.90;49.20
23063;DHT22;11699;43.704;10.430;2023-04-05T07:36:17;18.00;48.00
23063;DHT22;11699;43.704;10.430;2023-04-05T07:38:44;18.50;48.10
23063;DHT22;11699;43.704;10.430;2023-04-05T07:41:11;18.80;48.50
23063;DHT22;11699;43.704;10.430;2023-04-05T07:43:41;18.70;46.30
23063;DHT22;11699;43.704;10.430;2023-04-05T07:46:09;18.50;46.30
23063;DHT22;11699;43.704;10.430;2023-04-05T07:48:37;19.20;46.90
23063;DHT22;11699;43.704;10.430;2023-04-05T07:51:05;17.80;46.50
23063;DHT22;11699;43.704;10.430;2023-04-05T07:53:33;19.00;47.00
23063;DHT22;11699;43.704;10.430;2023-04-05T07:56:03;17.00;44.10
23063;DHT22;11699;43.704;10.430;2023-04-05T07:58:30;17.40;45.00
23063;DHT22;11699;43.704;10.430;2023-04-05T08:00:59;18.10;46.30
23063;DHT22;11699;43.704;10.430;2023-04-05T08:03:27;19.40;47.20
23063;DHT22;11699;43.704;10.430;2023-04-05T08:05:56;20.50;44.60
23063;DHT22;11699;43.704;10.430;2023-04-05T08:08:24;20.50;43.40
23063;DHT22;11699;43.704;10.430;2023-04-05T08:10:51;19.80;46.10
23063;DHT22;11699;43.704;10.430;2023-04-05T08:13:19;21.10;45.20
23063;DHT22;11699;43.704;10.430;2023-04-05T08:15:46;22.30;44.90
23063;DHT22;11699;43.704;10.430;2023-04-05T08:18:13;20.70;43.30
23063;DHT22;11699;43.704;10.430;2023-04-05T08:20:40;22.10;46.80
23063;DHT22;11699;43.704;10.430;2023-04-05T08:23:09;21.50;43.00
23063;DHT22;11699;43.704;10.430;2023-04-05T08:25:36;23.00;45.10
23063;DHT22;11699;43.704;10.430;2023-04-05T08:28:03;23.30;44.60
23063;DHT22;11699;43.704;10.430;2023-04-05T08:30:31;24.90;44.60
23063;DHT22;11699;43.704;10.430;2023-04-05T08:32:58;24.70;41.20
23063;DHT22;11699;43.704;10.430;2023-04-05T08:35:25;24.20;40.00
23063;DHT22;11699;43.704;10.430;2023-04-05T08:37:53;23.80;39.50
23063;DHT22;11699;43.704;10.430;2023-04-05T08:40:24;24.80;39.90
23063;DHT22;11699;43.704;10.430;2023-04-05T08:43:02;25.60;40.40
23063;DHT22;11699;43.704;10.430;2023-04-05T08:45:33;26.60;41.60
23063;DHT22;11699;43.704;10.430;2023-04-05T08:48:01;26.20;42.40
23063;DHT22;11699;43.704;10.430;2023-04-05T08:50:28;24.50;40.70
23063;DHT22;11699;43.704;10.430;2023-04-05T08:52:55;24.80;39.70
23063;DHT22;11699;43.704;10.430;2023-04-05T08:55:25;23.40;39.40
23063;DHT22;11699;43.704;10.430;2023-04-05T08:57:53;23.10;40.50
23063;DHT22;11699;43.704;10.430;2023-04-05T09:00:24;21.70;40.10
23063;DHT22;11699;43.704;10.430;2023-04-05T09:02:55;21.70;41.90
23063;DHT22;11699;43.704;10.430;2023-04-05T09:05:25;22.10;43.60
23063;DHT22;11699;43.704;10.430;2023-04-05T09:07:53;21.90;43.50
23063;DHT22;11699;43.704;10.430;2023-04-05T09:10:21;22.10;43.60
23063;DHT22;11699;43.704;10.430;2023-04-05T09:12:51;21.90;42.30
23063;DHT22;11699;43.704;10.430;2023-04-05T09:15:19;22.60;43.30
23063;DHT22;11699;43.704;10.430;2023-04-05T09:17:49;22.80;43.40
23063;DHT22;11699;43.704;10.430;2023-04-05T09:20:17;21.90;44.20
23063;DHT22;11699;43.704;10.430;2023-04-05T09:22:45;20.70;42.50
23063;DHT22;11699;43.704;10.430;2023-04-05T09:25:32;20.00;41.60
23063;DHT22;11699;43.704;10.430;2023-04-05T09:28:01;21.20;43.30
23063;DHT22;11699;43.704;10.430;2023-04-05T09:30:29;20.50;40.90
23063;DHT22;11699;43.704;10.430;2023-04-05T09:32:56;19.30;43.00
23063;DHT22;11699;43.704;10.430;2023-04-05T09:35:25;18.30;42.90
23063;DHT22;11699;43.704;10.430;2023-04-05T09:37:54;18.80;44.70
23063;DHT22;11699;43.704;10.430;2023-04-05T09:40:22;20.40;43.00
23063;DHT22;11699;43.704;10.430;2023-04-05T09:42:49;21.00;44.10
23063;DHT22;11699;43.704;10.430;2023-04-05T09:45:20;22.20;41.80
23063;DHT22;11699;43.704;10.430;2023-04-05T09:47:55;21.60;42.20
23063;DHT22;11699;43.704;10.430;2023-04-05T09:50:22;20.20;41.30
23063;DHT22;11699;43.704;10.430;2023-04-05T09:52:50;19.70;42.00
23063;DHT22;11699;43.704;10.430;2023-04-05T09:55:26;20.30;42.50
23063;DHT22;11699;43.704;10.430;2023-04-05T09:57:54;21.20;41.90
23063;DHT22;11699;43.704;10.430;2023-04-05T10:00:23;21.90;41.70
23063;DHT22;11699;43.704;10.430;2023-04-05T10:02:54;21.20;40.50
23063;DHT22;11699;43.704;10.430;2023-04-05T10:05:23;23.20;43.20
23063;DHT22;11699;43.704;10.430;2023-04-05T10:07:51;24.40;41.20
23063;DHT22;11699;43.704;10.430;2023-04-05T10:10:21;25.20;40.40
23063;DHT22;11699;43.704;10.430;2023-04-05T10:12:49;25.70;39.30
23063;DHT22;11699;43.704;10.430;2023-04-05T10:15:16;24.90;39.00
23063;DHT22;11699;43.704;10.430;2023-04-05T10:17:48;25.50;38.40
23063;DHT22;11699;43.704;10.430;2023-04-05T10:20:19;27.00;37.20
23063;DHT22;11699;43.704;10.430;2023-04-05T10:23:00;26.20;37.60
23063;DHT22;11699;43.704;10.430;2023-04-05T10:25:43;26.30;38.50
23063;DHT22;11699;43.704;10.430;2023-04-05T10:28:15;24.90;38.20
23063;DHT22;11699;43.704;10.430;2023-04-05T10:30:46;24.00;38.50
23063;DHT22;11699;43.704;10.430;2023-04-05T10:33:21;23.70;40.00
23063;DHT22;11699;43.704;10.430;2023-04-05T10:35:59;23.50;39.00
23063;DHT22;11699;43.704;10.430;2023-04-05T10:38:39;24.50;40.50
23063;DHT22;11699;43.704;10.430;2023-04-05T10:41:09;25.00;36.90
23063;DHT22;11699;43.704;10.430;2023-04-05T10:43:40;24.50;35.30
23063;DHT22;11699;43.704;10.430;2023-04-05T10:46:09;24.50;37.90
23063;DHT22;11699;43.704;10.430;2023-04-05T10:48:45;26.10;38.20
23063;DHT22;11699;43.704;10.430;2023-04-05T10:51:15;26.00;37.50
23063;DHT22;11699;43.704;10.430;2023-04-05T10:53:43;24.60;36.80
23063;DHT22;11699;43.704;10.430;2023-04-05T10:56:11;24.90;36.60
23063;DHT22;11699;43.704;10.430;2023-04-05T10:58:39;24.80;37.90
23063;DHT22;11699;43.704;10.430;2023-04-05T11:01:08;27.00;36.70
23063;DHT22;11699;43.704;10.430;2023-04-05T11:03:46;28.10;35.50
23063;DHT22;11699;43.704;10.430;2023-04-05T11:06:18;27.80;38.20
23063;DHT22;11699;43.704;10.430;2023-04-05T11:08:46;26.90;36.70
23063;DHT22;11699;43.704;10.430;2023-04-05T11:11:16;26.80;38.20
23063;DHT22;11699;43.704;10.430;2023-04-05T11:13:51;25.40;37.60
23063;DHT22;11699;43.704;10.430;2023-04-05T11:16:18;25.70;36.90
23063;DHT22;11699;43.704;10.430;2023-04-05T11:18:48;24.10;35.00
23063;DHT22;11699;43.704;10.430;2023-04-05T11:21:21;22.90;38.40
23063;DHT22;11699;43.704;10.430;2023-04-05T11:24:03;23.80;36.40
23063;DHT22;11699;43.704;10.430;2023-04-05T11:26:32;25.00;38.50
23063;DHT22;11699;43.704;10.430;2023-04-05T11:29:00;25.40;36.00
23063;DHT22;11699;43.704;10.430;2023-04-05T11:31:27;25.60;36.80
23063;DHT22;11699;43.704;10.430;2023-04-05T11:33:56;25.80;38.60
23063;DHT22;11699;43.704;10.430;2023-04-05T11:36:41;23.40;35.70
23063;DHT22;11699;43.704;10.430;2023-04-05T11:39:24;22.50;38.10
23063;DHT22;11699;43.704;10.430;2023-04-05T11:41:59;22.90;37.30
23063;DHT22;11699;43.704;10.430;2023-04-05T11:44:28;24.60;37.70
23063;DHT22;11699;43.704;10.430;2023-04-05T11:46:56;25.20;38.40
23063;DHT22;11699;43.704;10.430;2023-04-05T11:49:25;25.80;38.90
23063;DHT22;11699;43.704;10.430;2023-04-05T11:51:53;25.60;38.10
23063;DHT22;11699;43.704;10.430;2023-04-05T11:54:30;24.90;37.70
23063;DHT22;11699;43.704;10.430;2023-04-05T11:56:58;26.20;41.50
23063;DHT22;11699;43.704;10.430;2023-04-05T11:59:32;26.60;38.50
23063;DHT22;11699;43.704;10.430;2023-04-05T12:02:00;26.70;37.60
23063;DHT22;11699;43.704;10.430;2023-04-05T12:04:30;26.00;39.00
23063;DHT22;11699;43.704;10.430;2023-04-05T12:07:23;26.60;38.70
23063;DHT22;11699;43.704;10.430;2023-04-05T12:10:03;24.30;36.90
23063;DHT22;11699;43.704;10.430;2023-04-05T12:12:34;25.00;36.30
23063;DHT22;11699;43.704;10.430;2023-04-05T12:15:05;26.70;38.60
23063;DHT22;11699;43.704;10.430;2023-04-05T12:17:40;26.10;37.40
23063;DHT22;11699;43.704;10.430;2023-04-05T12:20:11;26.20;35.60
23063;DHT22;11699;43.704;10.430;2023-04-05T12:22:40;26.70;37.80
23063;DHT22;11699;43.704;10.430;2023-04-05T12:25:08;26.70;39.90
23063;DHT22;11699;43.704;10.430;2023-04-05T12:27:37;26.40;39.40
23063;DHT22;11699;43.704;10.430;2023-04-05T12:30:12;27.00;39.30
23063;DHT22;11699;43.704;10.430;2023-04-05T12:32:44;27.50;37.90
23063;DHT22;11699;43.704;10.430;2023-04-05T12:35:16;28.40;38.00
23063;DHT22;11699;43.704;10.430;2023-04-05T12:37:43;27.10;37.30
23063;DHT22;11699;43.704;10.430;2023-04-05T12:40:12;27.60;37.70
23063;DHT22;11699;43.704;10.430;2023-04-05T12:42:40;24.80;36.30
23063;DHT22;11699;43.704;10.430;2023-04-05T12:45:10;23.00;39.90
23063;DHT22;11699;43.704;10.430;2023-04-05T12:47:47;23.20;36.80
23063;DHT22;11699;43.704;10.430;2023-04-05T12:50:18;25.00;39.20
23063;DHT22;11699;43.704;10.430;2023-04-05T12:52:52;26.00;39.70
23063;DHT22;11699;43.704;10.430;2023-04-05T12:55:20;25.50;37.50
23063;DHT22;11699;43.704;10.430;2023-04-05T12:57:55;26.30;35.50
23063;DHT22;11699;43.704;10.430;2023-04-05T13:00:25;25.40;37.20
23063;DHT22;11699;43.704;10.430;2023-04-05T13:02:54;24.40;40.20
23063;DHT22;11699;43.704;10.430;2023-04-05T13:05:25;22.80;40.70
23063;DHT22;11699;43.704;10.430;2023-04-05T13:07:52;23.10;43.00
23063;DHT22;11699;43.704;10.430;2023-04-05T13:10:22;24.30;43.70
23063;DHT22;11699;43.704;10.430;2023-04-05T13:12:49;25.60;41.40
23063;DHT22;11699;43.704;10.430;2023-04-05T13:15:17;26.40;39.90
23063;DHT22;11699;43.704;10.430;2023-04-05T13:17:45;27.20;40.50
23063;DHT22;11699;43.704;10.430;2023-04-05T13:20:14;27.10;40.90
23063;DHT22;11699;43.704;10.430;2023-04-05T13:22:43;27.50;38.50
23063;DHT22;11699;43.704;10.430;2023-04-05T13:25:11;27.60;38.90
23063;DHT22;11699;43.704;10.430;2023-04-05T13:27:39;28.10;38.40
23063;DHT22;11699;43.704;10.430;2023-04-05T13:30:06;27.50;36.10
23063;DHT22;11699;43.704;10.430;2023-04-05T13:32:34;26.80;38.60
23063;DHT22;11699;43.704;10.430;2023-04-05T13:35:01;26.00;37.80
23063;DHT22;11699;43.704;10.430;2023-04-05T13:37:29;25.30;40.00
23063;DHT22;11699;43.704;10.430;2023-04-05T13:39:58;25.90;41.40
23063;DHT22;11699;43.704;10.430;2023-04-05T13:42:25;25.80;40.30
23063;DHT22;11699;43.704;10.430;2023-04-05T13:44:52;26.00;41.30
23063;DHT22;11699;43.704;10.430;2023-04-05T13:47:19;25.90;40.50
23063;DHT22;11699;43.704;10.430;2023-04-05T13:49:47;25.50;41.00
23063;DHT22;11699;43.704;10.430;2023-04-05T13:52:14;25.10;40.90
23063;DHT22;11699;43.704;10.430;2023-04-05T13:54:42;25.60;39.70
23063;DHT22;11699;43.704;10.430;2023-04-05T13:57:11;25.40;41.50
23063;DHT22;11699;43.704;10.430;2023-04-05T13:59:39;24.60;40.10
23063;DHT22;11699;43.704;10.430;2023-04-05T14:02:07;25.20;42.40
23063;DHT22;11699;43.704;10.430;2023-04-05T14:04:34;24.70;41.60
23063;DHT22;11699;43.704;10.430;2023-04-05T14:07:01;25.40;42.30
23063;DHT22;11699;43.704;10.430;2023-04-05T14:09:28;26.30;40.00
23063;DHT22;11699;43.704;10.430;2023-04-05T14:11:59;26.40;40.50
23063;DHT22;11699;43.704;10.430;2023-04-05T14:14:29;26.20;40.10
23063;DHT22;11699;43.704;10.430;2023-04-05T14:16:56;26.10;41.80
23063;DHT22;11699;43.704;10.430;2023-04-05T14:19:23;26.00;42.20
23063;DHT22;11699;43.704;10.430;2023-04-05T14:21:51;26.00;40.30
23063;DHT22;11699;43.704;10.430;2023-04-05T14:24:18;26.60;41.80
23063;DHT22;11699;43.704;10.430;2023-04-05T14:26:46;26.30;41.60
23063;DHT22;11699;43.704;10.430;2023-04-05T14:29:14;25.10;42.20
23063;DHT22;11699;43.704;10.430;2023-04-05T14:31:43;24.20;42.20
23063;DHT22;11699;43.704;10.430;2023-04-05T14:34:11;22.80;43.40
23063;DHT22;11699;43.704;10.430;2023-04-05T14:36:38;22.80;44.20
23063;DHT22;11699;43.704;10.430;2023-04-05T14:39:06;22.10;43.10
23063;DHT22;11699;43.704;10.430;2023-04-05T14:41:34;22.10;44.50
23063;DHT22;11699;43.704;10.430;2023-04-05T14:44:02;22.60;44.00
23063;DHT22;11699;43.704;10.430;2023-04-05T14:46:29;22.70;45.60
23063;DHT22;11699;43.704;10.430;2023-04-05T14:48:58;23.40;44.40
23063;DHT22;11699;43.704;10.430;2023-04-05T14:51:26;23.80;44.10
23063;DHT22;11699;43.704;10.430;2023-04-05T14:53:53;23.70;43.70
23063;DHT22;11699;43.704;10.430;2023-04-05T14:56:20;23.90;43.00
23063;DHT22;11699;43.704;10.430;2023-04-05T14:58:48;23.70;43.40
23063;DHT22;11699;43.704;10.430;2023-04-05T15:01:15;22.40;42.20
23063;DHT22;11699;43.704;10.430;2023-04-05T15:03:43;22.20;44.00
23063;DHT22;11699;43.704;10.430;2023-04-05T15:06:14;22.20;43.00
23063;DHT22;11699;43.704;10.430;2023-04-05T15:08:41;22.10;44.20
23063;DHT22;11699;43.704;10.430;2023-04-05T15:11:09;23.20;44.20
23063;DHT22;11699;43.704;10.430;2023-04-05T15:13:36;23.90;44.40
23063;DHT22;11699;43.704;10.430;2023-04-05T15:16:04;23.20;44.20
23063;DHT22;11699;43.704;10.430;2023-04-05T15:18:31;22.90;44.20
23063;DHT22;11699;43.704;10.430;2023-04-05T15:20:59;22.80;44.20
23063;DHT22;11699;43.704;10.430;2023-04-05T15:23:28;22.40;43.30
23063;DHT22;11699;43.704;10.430;2023-04-05T15:25:55;22.00;43.30
23063;DHT22;11699;43.704;10.430;2023-04-05T15:28:22;21.10;45.30
23063;DHT22;11699;43.704;10.430;2023-04-05T15:30:49;20.30;45.20
23063;DHT22;11699;43.704;10.430;2023-04-05T15:33:17;20.00;46.60
23063;DHT22;11699;43.704;10.430;2023-04-05T15:35:44;19.50;46.10